Time;durP1;ratioP1;P1;durP2;ratioP2;P2;SDS_P1;SDS_P2;PMS_P1;PMS_P2;Temp;Humidity;BMP_temperature;BMP_pressure;BME280_temperature;BME280_humidity;BME280_pressure;Samples;Min_cycle;Max_cycle;Signal;HPM_P1;HPM_P2
2023/08/16 00:00:54;;;;;;;7.40;3.70;;;;;;;21.68;68.83;101786.44;5054523;28;20033;-60
2023/08/16 00:03:19;;;;;;;7.65;3.80;;;;;;;21.58;69.76;101785.72;5054313;28;20624;-61
2023/08/16 00:05:45;;;;;;;5.85;3.85;;;;;;;21.65;69.41;101790.06;5054412;28;20035;-60
2023/08/16 00:08:11;;;;;;;7.82;3.90;;;;;;;21.53;69.84;101787.63;5054509;28;20371;-60
2023/08/16 00:10:37;;;;;;;8.25;3.65;;;;;;;21.63;69.83;101791.03;5054038;28;20057;-59
2023/08/16 00:13:03;;;;;;;6.53;3.55;;;;;;;21.53;70.05;101794.81;5054148;28;20040;-61
2023/08/16 00:15:28;;;;;;;9.05;3.88;;;;;;;21.49;69.92;101786.78;5054156;28;20021;-61
2023/08/16 00:17:54;;;;;;;8.38;4.30;;;;;;;21.47;70.16;101788.63;5036343;28;20095;-60
2023/08/16 00:20:26;;;;;;;7.95;4.00;;;;;;;21.50;70.62;101788.59;5054132;28;20028;-60
2023/08/16 00:22:52;;;;;;;11.02;4.00;;;;;;;21.53;70.72;101786.75;5054124;28;20094;-60
2023/08/16 00:25:17;;;;;;;8.20;4.38;;;;;;;21.52;70.49;101785.84;5054312;28;20021;-60
2023/08/16 00:27:43;;;;;;;8.07;4.00;;;;;;;21.59;70.33;101792.03;5053780;28;20498;-61
2023/08/16 00:30:09;;;;;;;9.02;4.50;;;;;;;21.51;71.05;101792.16;5053602;28;20486;-60
2023/08/16 00:32:35;;;;;;;8.57;4.40;;;;;;;21.46;71.27;101794.94;5054048;28;20025;-59
2023/08/16 00:35:00;;;;;;;7.78;4.43;;;;;;;21.53;70.96;101790.31;5053875;28;20047;-60
2023/08/16 00:37:26;;;;;;;8.63;4.60;;;;;;;21.59;70.75;101792.03;5053812;28;20021;-60
2023/08/16 00:39:51;;;;;;;9.00;4.90;;;;;;;21.49;70.51;101791.28;5053757;28;20056;-60
2023/08/16 00:42:17;;;;;;;10.30;4.72;;;;;;;21.53;70.44;101786.75;5053849;28;20033;-60
2023/08/16 00:44:42;;;;;;;9.93;5.00;;;;;;;21.50;71.07;101793.09;5053652;28;20067;-60
2023/08/16 00:47:07;;;;;;;9.75;5.10;;;;;;;21.50;70.20;101801.16;5053649;28;20063;-60
2023/08/16 00:49:33;;;;;;;9.55;5.35;;;;;;;21.47;70.52;101799.41;5053554;28;20470;-60
2023/08/16 00:52:01;;;;;;;8.15;5.30;;;;;;;21.46;70.28;101807.50;5053523;28;20056;-59
2023/08/16 00:54:28;;;;;;;9.23;5.22;;;;;;;21.44;70.38;101814.69;5053531;28;20582;-60
2023/08/16 00:56:54;;;;;;;8.95;4.88;;;;;;;21.52;71.01;101815.44;5053399;28;20471;-59
2023/08/16 00:59:20;;;;;;;10.13;4.78;;;;;;;21.54;71.81;101812.72;5053265;28;20544;-60
2023/08/16 01:01:46;;;;;;;7.20;4.40;;;;;;;21.49;72.09;101812.81;5053448;28;20033;-60
2023/08/16 01:04:14;;;;;;;7.80;4.80;;;;;;;21.53;72.08;101817.22;5035535;28;20501;-60
2023/08/16 01:06:39;;;;;;;7.93;4.80;;;;;;;21.50;72.31;101818.19;5035475;28;20083;-60
2023/08/16 01:09:05;;;;;;;6.43;4.40;;;;;;;21.56;72.23;101803.72;5053277;28;20025;-61
2023/08/16 01:11:53;;;;;;;8.63;4.63;;;;;;;21.57;72.20;101801.91;5052949;28;20418;-59
2023/08/16 01:14:41;;;;;;;12.32;4.82;;;;;;;21.50;72.33;101806.53;5053176;28;20029;-59
2023/08/16 01:17:07;;;;;;;8.07;4.70;;;;;;;21.36;73.64;101819.34;5053039;28;20025;-59
2023/08/16 01:19:35;;;;;;;10.10;5.25;;;;;;;21.29;73.23;101820.34;5053107;28;20025;-60
2023/08/16 01:22:26;;;;;;;15.45;5.40;;;;;;;21.39;72.79;101822.84;5053069;28;20032;-59
2023/08/16 01:25:08;;;;;;;8.93;5.70;;;;;;;21.38;72.71;101822.91;5038968;28;20037;-59
2023/08/16 01:27:35;;;;;;;7.00;5.03;;;;;;;21.40;72.83;101826.44;5053057;28;20067;-59
2023/08/16 01:30:03;;;;;;;8.13;5.30;;;;;;;21.38;72.68;101841.72;5052788;28;20074;-60
2023/08/16 01:32:28;;;;;;;9.45;5.35;;;;;;;21.40;73.02;101837.19;5052880;28;20037;-60
2023/08/16 01:34:54;;;;;;;7.72;5.28;;;;;;;21.30;73.66;101832.88;5034982;28;20036;-60
2023/08/16 01:37:19;;;;;;;10.93;5.07;;;;;;;21.18;74.67;101836.66;5052837;28;20029;-59
2023/08/16 01:39:49;;;;;;;10.35;5.70;;;;;;;21.19;74.50;101841.09;5052707;28;20056;-60
2023/08/16 01:42:17;;;;;;;10.52;6.00;;;;;;;21.13;74.48;101843.91;5052897;28;20103;-59
2023/08/16 01:44:45;;;;;;;10.48;5.43;;;;;;;21.07;74.36;101842.22;5052925;28;20029;-60
2023/08/16 01:47:12;;;;;;;7.80;5.40;;;;;;;21.07;74.27;101839.53;5052907;28;20028;-59
2023/08/16 01:49:41;;;;;;;8.95;5.40;;;;;;;20.99;74.73;101836.97;5052795;28;20049;-60
2023/08/16 01:52:06;;;;;;;8.77;5.20;;;;;;;21.04;74.49;101838.69;5053602;28;20024;-59
2023/08/16 01:54:32;;;;;;;9.25;5.15;;;;;;;21.04;74.59;101836.00;5057094;28;20025;-60
2023/08/16 01:56:57;;;;;;;11.27;5.32;;;;;;;21.08;74.52;101840.41;5056828;28;20029;-58
2023/08/16 01:59:22;;;;;;;11.15;5.47;;;;;;;20.99;74.45;101836.97;5038651;28;20402;-59
2023/08/16 02:01:48;;;;;;;7.97;4.82;;;;;;;20.89;75.12;101834.44;5056984;28;20040;-60
2023/08/16 02:04:13;;;;;;;9.32;5.13;;;;;;;20.86;74.64;101837.22;5056569;28;20493;-59
2023/08/16 02:06:38;;;;;;;10.05;5.03;;;;;;;20.87;74.52;101839.84;5056766;28;20025;-59
2023/08/16 02:09:04;;;;;;;9.70;5.20;;;;;;;20.84;74.83;101847.06;5056525;28;20554;-60
2023/08/16 02:11:30;;;;;;;8.40;5.10;;;;;;;20.68;75.56;101844.59;5056347;28;20049;-59
2023/08/16 02:13:56;;;;;;;9.73;5.03;;;;;;;20.64;75.46;101842.91;5055551;28;20489;-59
2023/08/16 02:16:23;;;;;;;7.95;5.30;;;;;;;20.59;75.27;101847.44;5056735;28;20094;-59
2023/08/16 02:18:48;;;;;;;6.15;4.90;;;;;;;20.58;75.33;101842.97;5039029;28;20052;-58
2023/08/16 02:21:14;;;;;;;8.63;5.18;;;;;;;20.60;75.50;101842.94;5056678;28;20482;-58
2023/08/16 02:23:39;;;;;;;9.95;5.40;;;;;;;20.48;75.70;101838.66;5038442;28;20386;-59
2023/08/16 02:26:05;;;;;;;8.48;5.40;;;;;;;20.39;76.06;101838.78;5056390;28;20095;-60
2023/08/16 02:28:30;;;;;;;10.88;5.50;;;;;;;20.45;75.71;101836.88;5056291;28;20025;-58
2023/08/16 02:31:06;;;;;;;9.85;5.43;;;;;;;20.44;75.53;101847.66;5056104;28;20100;-59
2023/08/16 02:33:34;;;;;;;10.98;5.10;;;;;;;20.48;75.42;101847.59;5056220;28;20122;-59
2023/08/16 02:36:00;;;;;;;7.82;5.40;;;;;;;20.41;75.54;101850.34;5056129;28;20390;-59
2023/08/16 02:38:26;;;;;;;10.57;5.57;;;;;;;20.47;75.54;101853.88;5038393;28;20021;-60
2023/08/16 02:40:51;;;;;;;10.52;5.32;;;;;;;20.39;75.63;101853.09;5056084;28;20040;-60
2023/08/16 02:43:16;;;;;;;8.85;5.43;;;;;;;20.47;75.50;101844.88;5055981;28;20052;-59
2023/08/16 02:45:42;;;;;;;10.20;5.60;;;;;;;20.42;75.96;101836.91;5056055;28;20358;-59
2023/08/16 02:48:07;;;;;;;10.07;5.10;;;;;;;20.47;76.00;101832.38;5056041;28;20378;-59
2023/08/16 02:50:33;;;;;;;9.13;5.47;;;;;;;20.45;75.70;101827.94;5055751;28;20505;-59
2023/08/16 02:52:58;;;;;;;7.07;5.55;;;;;;;20.41;75.42;101826.19;5055757;28;20033;-58
2023/08/16 02:55:24;;;;;;;9.52;5.57;;;;;;;20.41;75.35;101823.50;5056129;28;20025;-59
2023/08/16 02:57:49;;;;;;;12.80;6.20;;;;;;;20.31;76.04;101836.19;5055751;28;20025;-60
2023/08/16 03:00:15;;;;;;;8.30;5.93;;;;;;;20.15;75.50;101830.13;5055505;28;20029;-58
2023/08/16 03:02:41;;;;;;;9.57;6.03;;;;;;;20.09;76.36;101835.59;5055988;28;20028;-59
2023/08/16 03:05:06;;;;;;;10.80;5.80;;;;;;;20.09;76.59;101840.94;5054486;28;20028;-60
2023/08/16 03:07:32;;;;;;;10.32;6.03;;;;;;;20.06;76.72;101840.09;5055517;28;20060;-59
2023/08/16 03:09:58;;;;;;;9.98;6.20;;;;;;;19.98;76.86;101833.03;5055375;28;20029;-59
2023/08/16 03:12:24;;;;;;;8.05;6.00;;;;;;;20.04;76.93;101833.84;5055270;28;20045;-59
2023/08/16 03:14:49;;;;;;;9.88;5.70;;;;;;;20.03;77.36;101846.38;5055389;28;20025;-59
2023/08/16 03:17:14;;;;;;;8.45;5.93;;;;;;;20.07;76.94;101841.88;5055404;28;20387;-58
2023/08/16 03:19:40;;;;;;;10.35;6.13;;;;;;;20.08;76.71;101843.63;5055381;28;20021;-59
2023/08/16 03:22:05;;;;;;;12.63;6.43;;;;;;;20.07;76.93;101840.06;5055556;28;20029;-59
2023/08/16 03:24:31;;;;;;;10.98;6.38;;;;;;;20.04;77.38;101848.16;5055529;28;20059;-59
2023/08/16 03:26:56;;;;;;;10.05;5.85;;;;;;;20.09;77.08;101846.31;5037339;28;20032;-60
2023/08/16 03:29:21;;;;;;;11.30;6.20;;;;;;;20.06;77.09;101849.03;5054976;28;20060;-59
2023/08/16 03:31:47;;;;;;;8.27;5.82;;;;;;;20.12;76.94;101848.06;5055094;28;20032;-59
2023/08/16 03:34:13;;;;;;;8.48;5.72;;;;;;;20.12;77.11;101848.94;5055117;28;20028;-60
2023/08/16 03:36:39;;;;;;;8.40;6.35;;;;;;;20.04;77.22;101844.59;5054943;28;20033;-59
2023/08/16 03:39:05;;;;;;;10.85;6.10;;;;;;;19.97;77.52;101841.09;5055049;28;20412;-59
2023/08/16 03:41:32;;;;;;;11.77;6.65;;;;;;;19.87;77.52;101843.03;5054961;28;20394;-59
2023/08/16 03:43:58;;;;;;;11.95;6.70;;;;;;;19.84;77.96;101847.53;5054825;28;20560;-59
2023/08/16 03:46:23;;;;;;;9.10;6.20;;;;;;;19.85;77.88;101842.13;5054750;28;20025;-59
2023/08/16 03:48:48;;;;;;;12.00;6.30;;;;;;;20.02;77.74;101856.22;5054666;28;20025;-59
2023/08/16 03:51:14;;;;;;;8.95;6.18;;;;;;;19.90;78.21;101853.69;5036846;28;20021;-58
2023/08/16 03:53:39;;;;;;;9.60;6.10;;;;;;;19.87;78.16;101847.47;5054608;28;20128;-58
2023/08/16 03:56:04;;;;;;;10.15;6.30;;;;;;;19.85;78.69;101846.59;5054961;28;20029;-58
2023/08/16 03:58:30;;;;;;;10.10;6.30;;;;;;;19.83;78.87;101852.00;5054442;28;20033;-59
2023/08/16 04:00:55;;;;;;;9.32;6.00;;;;;;;19.94;77.95;101859.91;5036447;28;20033;-58
2023/08/16 04:03:21;;;;;;;8.77;5.93;;;;;;;19.99;78.18;101866.09;5054645;28;20108;-59
2023/08/16 04:05:47;;;;;;;10.88;6.20;;;;;;;20.07;77.93;101872.28;5054519;28;20463;-59
2023/08/16 04:08:12;;;;;;;9.70;6.35;;;;;;;20.05;77.79;101863.38;5054340;28;20108;-59
2023/08/16 04:10:38;;;;;;;8.57;6.45;;;;;;;19.97;77.92;101865.25;5054059;28;20087;-60
2023/08/16 04:13:04;;;;;;;12.32;6.40;;;;;;;19.99;77.96;101858.06;5054387;28;20033;-59
2023/08/16 04:15:30;;;;;;;11.85;6.50;;;;;;;19.99;77.80;101863.41;5053797;28;20550;-59
2023/08/16 04:17:55;;;;;;;14.70;6.50;;;;;;;19.89;78.27;101862.66;5054523;28;20108;-59
2023/08/16 04:20:22;;;;;;;10.35;6.18;;;;;;;19.80;78.46;101872.59;5054226;28;20387;-58
2023/08/16 04:22:47;;;;;;;10.82;6.32;;;;;;;19.80;78.65;101875.28;5054024;28;20474;-59
2023/08/16 04:25:13;;;;;;;11.80;6.50;;;;;;;19.81;78.74;101874.38;5053864;28;20032;-59
2023/08/16 04:27:38;;;;;;;10.60;5.75;;;;;;;19.77;78.84;101879.75;5053935;28;20032;-59
2023/08/16 04:30:06;;;;;;;12.23;6.43;;;;;;;19.75;78.21;101881.59;5053510;28;20032;-60
2023/08/16 04:32:31;;;;;;;9.15;6.30;;;;;;;19.71;77.95;101878.97;5053770;28;20029;-60
2023/08/16 04:34:57;;;;;;;12.10;6.03;;;;;;;19.69;78.08;101883.44;5053077;28;20435;-59
2023/08/16 04:37:22;;;;;;;9.38;5.90;;;;;;;19.68;78.71;101869.13;5053318;28;20033;-59
2023/08/16 04:39:48;;;;;;;17.95;6.55;;;;;;;19.62;78.60;101876.38;5053039;28;20036;-60
2023/08/16 04:42:14;;;;;;;12.77;6.20;;;;;;;19.62;78.80;101881.75;5053328;28;20029;-59
2023/08/16 04:44:39;;;;;;;9.52;6.18;;;;;;;19.61;78.58;101887.97;5052874;28;20386;-60
2023/08/16 04:47:05;;;;;;;11.27;6.28;;;;;;;19.61;78.39;101885.28;5052831;28;20029;-59
2023/08/16 04:49:32;;;;;;;7.85;5.65;;;;;;;19.63;78.61;101881.72;5052961;28;20075;-60
2023/08/16 04:51:57;;;;;;;8.98;6.30;;;;;;;19.60;78.54;101879.00;5034694;28;20079;-60
2023/08/16 04:54:23;;;;;;;10.57;6.15;;;;;;;19.51;78.76;101871.94;5053164;28;20445;-59
2023/08/16 04:56:49;;;;;;;10.60;6.10;;;;;;;19.40;79.45;101871.19;5052849;28;20483;-60
2023/08/16 04:59:15;;;;;;;11.30;5.95;;;;;;;19.47;79.00;101875.56;5052729;28;20082;-59
2023/08/16 05:01:41;;;;;;;10.63;6.32;;;;;;;19.43;79.41;101883.66;5052973;28;20029;-60
2023/08/16 05:04:09;;;;;;;12.40;6.28;;;;;;;19.40;80.05;101881.00;5052843;28;20111;-60
2023/08/16 05:06:35;;;;;;;16.33;6.40;;;;;;;19.38;79.91;101889.06;5052565;28;20033;-60
2023/08/16 05:09:02;;;;;;;11.10;6.20;;;;;;;19.38;80.30;101893.53;5052637;28;20039;-60
2023/08/16 05:11:28;;;;;;;10.95;5.72;;;;;;;19.31;80.42;101890.00;5052320;28;20460;-59
2023/08/16 05:13:53;;;;;;;8.45;5.95;;;;;;;19.36;80.00;101890.00;5018173;28;20483;-59
2023/08/16 05:16:19;;;;;;;9.13;5.90;;;;;;;19.48;80.02;101887.19;5052568;28;20037;-60
2023/08/16 05:18:44;;;;;;;10.63;6.10;;;;;;;19.48;80.10;101895.22;5052376;28;20032;-60
2023/08/16 05:21:09;;;;;;;7.97;5.90;;;;;;;19.47;79.99;101893.44;5052636;28;20466;-60
2023/08/16 05:23:35;;;;;;;9.65;5.80;;;;;;;19.41;80.26;101902.44;5052367;28;20025;-60
2023/08/16 05:26:00;;;;;;;10.00;5.90;;;;;;;19.43;80.23;101905.09;5051293;28;20101;-60
2023/08/16 05:28:26;;;;;;;12.18;5.82;;;;;;;19.38;80.16;101910.50;5051933;28;20052;-60
2023/08/16 05:30:52;;;;;;;9.57;5.90;;;;;;;19.43;80.29;101913.13;5052335;28;20029;-60
2023/08/16 05:33:17;;;;;;;8.70;5.25;;;;;;;19.44;80.35;101921.19;5052533;28;20021;-60
2023/08/16 05:35:43;;;;;;;8.52;5.55;;;;;;;19.45;80.63;101919.41;5051258;28;20060;-60
2023/08/16 05:38:08;;;;;;;6.68;5.57;;;;;;;19.42;80.24;101912.25;5052405;28;20029;-60
2023/08/16 05:40:34;;;;;;;8.80;5.03;;;;;;;19.49;79.64;101914.00;5052408;28;20040;-60
2023/08/16 05:42:59;;;;;;;10.23;5.03;;;;;;;19.45;79.34;101911.34;5017885;28;20025;-60
2023/08/16 05:45:28;;;;;;;8.70;5.30;;;;;;;19.45;79.46;101912.25;5052260;28;20025;-61
2023/08/16 05:47:54;;;;;;;7.57;5.00;;;;;;;19.43;79.40;101916.72;5052541;28;20455;-61
2023/08/16 05:50:20;;;;;;;8.07;5.10;;;;;;;19.57;79.80;101915.69;5052045;28;20033;-60
2023/08/16 05:52:45;;;;;;;8.82;4.60;;;;;;;19.56;79.01;101912.13;5052338;28;20367;-60
2023/08/16 05:55:11;;;;;;;8.35;4.82;;;;;;;19.57;78.89;101915.69;5052127;28;20032;-59
2023/08/16 05:57:36;;;;;;;9.07;4.85;;;;;;;19.58;78.94;101912.13;5052131;28;20025;-60
2023/08/16 06:00:02;;;;;;;8.18;5.00;;;;;;;19.59;79.09;101925.50;5033950;28;20407;-60
2023/08/16 06:02:28;;;;;;;8.95;4.70;;;;;;;19.68;79.13;101928.13;5052020;28;20113;-60
2023/08/16 06:04:53;;;;;;;8.43;4.72;;;;;;;19.72;79.27;101937.94;5052127;28;20029;-60
2023/08/16 06:07:20;;;;;;;9.07;4.68;;;;;;;19.70;78.93;101936.19;5051982;28;20025;-59
2023/08/16 06:09:45;;;;;;;8.15;4.63;;;;;;;19.82;78.17;101946.75;5052062;28;20219;-60
2023/08/16 06:12:12;;;;;;;9.02;4.63;;;;;;;19.80;78.48;101939.66;5051751;28;20565;-60
2023/08/16 06:14:37;;;;;;;11.18;4.50;;;;;;;19.87;78.13;101939.59;5052223;28;20095;-61
2023/08/16 06:17:03;;;;;;;8.13;4.50;;;;;;;19.88;78.05;101933.31;5050377;28;20370;-60
2023/08/16 06:19:28;;;;;;;8.35;4.82;;;;;;;19.83;77.33;101935.16;5051175;28;20040;-60
2023/08/16 06:21:54;;;;;;;8.25;4.25;;;;;;;19.85;78.11;101932.44;5051706;28;20021;-60
2023/08/16 06:24:19;;;;;;;10.55;4.75;;;;;;;19.87;78.37;101933.31;5051957;28;20029;-60
2023/08/16 06:26:45;;;;;;;8.23;4.55;;;;;;;19.88;78.41;101930.63;5051912;28;20100;-60
2023/08/16 06:29:11;;;;;;;8.52;4.82;;;;;;;19.95;78.24;101921.59;5051789;28;20025;-60
2023/08/16 06:31:36;;;;;;;8.98;4.35;;;;;;;20.01;78.05;101926.91;5051712;28;20479;-60
2023/08/16 06:34:02;;;;;;;7.72;4.20;;;;;;;20.29;77.87;101928.38;5051853;28;20407;-60
2023/08/16 06:36:27;;;;;;;11.02;4.70;;;;;;;20.57;75.07;101927.16;5051748;28;20029;-61
2023/08/16 06:38:53;;;;;;;10.13;4.10;;;;;;;20.84;74.31;101927.66;5053641;28;20467;-61
2023/08/16 06:41:19;;;;;;;8.13;4.50;;;;;;;21.14;73.98;101926.31;5055542;28;20551;-60
2023/08/16 06:43:45;;;;;;;6.85;3.83;;;;;;;21.34;71.76;101926.03;5055371;28;20037;-59
2023/08/16 06:46:10;;;;;;;11.68;4.10;;;;;;;21.45;70.91;101932.09;5055520;28;20029;-60
2023/08/16 06:48:36;;;;;;;7.05;3.90;;;;;;;21.62;70.94;101927.31;5055300;28;20025;-60
2023/08/16 06:51:01;;;;;;;8.93;3.80;;;;;;;21.77;68.48;101922.59;5055198;28;20029;-60
2023/08/16 06:53:27;;;;;;;8.70;3.70;;;;;;;21.76;67.54;101924.41;5055231;28;20029;-61
2023/08/16 06:55:55;;;;;;;9.88;3.60;;;;;;;21.88;68.31;101926.84;5054978;28;20040;-60
2023/08/16 06:58:21;;;;;;;7.70;3.40;;;;;;;21.94;68.05;101931.22;5054321;28;20036;-61
2023/08/16 07:00:48;;;;;;;8.48;3.42;;;;;;;22.11;65.85;101930.91;5054794;28;20025;-60
2023/08/16 07:03:14;;;;;;;6.55;3.13;;;;;;;22.32;65.32;101933.19;5053823;28;20033;-60
2023/08/16 07:05:39;;;;;;;6.45;3.15;;;;;;;22.55;66.45;101945.28;5055061;28;20025;-60
2023/08/16 07:08:06;;;;;;;6.20;3.08;;;;;;;22.56;65.18;101949.75;5055140;28;20068;-60
2023/08/16 07:10:31;;;;;;;7.78;3.00;;;;;;;22.55;64.10;101951.56;5054584;28;20079;-60
2023/08/16 07:12:57;;;;;;;5.45;3.10;;;;;;;22.51;63.49;101944.47;5055260;28;20440;-60
2023/08/16 07:15:22;;;;;;;8.27;3.15;;;;;;;22.60;64.31;101946.94;5054823;28;20032;-60
2023/08/16 07:17:48;;;;;;;8.90;3.50;;;;;;;22.60;63.48;101955.03;5054667;28;20052;-60
2023/08/16 07:20:13;;;;;;;6.93;3.20;;;;;;;;;;5054681;28;20033;-60
2023/08/16 07:22:39;;;;;;;6.00;3.17;;;;;;;22.49;64.30;101949.91;5054731;28;20036;-61
2023/08/16 07:25:06;;;;;;;5.30;3.10;;;;;;;22.42;64.49;101942.84;5054683;28;20064;-59
2023/08/16 07:27:31;;;;;;;7.78;3.30;;;;;;;22.45;64.11;101947.28;5054611;28;20041;-60
2023/08/16 07:29:57;;;;;;;8.30;3.00;;;;;;;22.59;62.71;101949.69;5054455;28;20036;-59
2023/08/16 07:32:23;;;;;;;6.75;3.15;;;;;;;22.89;62.70;101951.69;5054587;28;20478;-60
2023/08/16 07:34:48;;;;;;;11.13;2.90;;;;;;;23.21;62.14;101958.16;5054671;28;20114;-60
2023/08/16 07:37:14;;;;;;;5.53;2.70;;;;;;;23.56;60.25;101954.63;5054568;28;20029;-61
2023/08/16 07:39:40;;;;;;;8.13;2.97;;;;;;;23.74;57.63;101951.47;5054454;28;20025;-59
2023/08/16 07:42:07;;;;;;;6.53;2.70;;;;;;;24.06;59.12;101951.50;5054494;28;20113;-59
2023/08/16 07:44:33;;;;;;;6.15;2.53;;;;;;;24.37;57.10;101951.56;5054325;28;20040;-60
2023/08/16 07:47:00;;;;;;;6.05;2.65;;;;;;;24.60;56.57;101962.59;5054353;28;20445;-60
2023/08/16 07:49:25;;;;;;;5.78;2.67;;;;;;;24.70;55.37;101965.88;5053689;28;20025;-61
2023/08/16 07:51:53;;;;;;;7.60;2.78;;;;;;;24.81;54.86;101965.56;5053800;28;20079;-60
2023/08/16 07:54:18;;;;;;;8.00;3.13;;;;;;;24.61;54.45;101967.06;5054359;28;20044;-61
2023/08/16 07:56:44;;;;;;;6.38;2.90;;;;;;;24.66;54.46;101966.91;5054252;28;20532;-60
2023/08/16 07:59:09;;;;;;;8.88;2.90;;;;;;;24.56;53.72;101969.00;5054095;28;20421;-60
2023/08/16 08:01:34;;;;;;;7.40;3.10;;;;;;;24.83;54.42;101978.09;5035880;28;20033;-61
2023/08/16 08:04:00;;;;;;;5.00;2.97;;;;;;;24.98;53.31;101968.63;5053888;28;20078;-60
2023/08/16 08:06:26;;;;;;;6.88;2.95;;;;;;;25.08;52.96;101972.84;5036303;28;20029;-60
2023/08/16 08:08:51;;;;;;;9.40;3.40;;;;;;;25.07;52.19;101971.06;5052951;28;20025;-59
2023/08/16 08:11:17;;;;;;;7.43;2.70;;;;;;;25.32;52.58;101968.47;5053651;28;20052;-60
2023/08/16 08:13:42;;;;;;;8.68;2.78;;;;;;;25.25;51.36;101966.91;5053513;28;20021;-60
2023/08/16 08:16:08;;;;;;;8.23;3.00;;;;;;;25.41;51.51;101976.28;5053851;28;20025;-61
2023/08/16 08:18:34;;;;;;;8.02;2.67;;;;;;;25.52;51.97;101975.91;5053924;28;20117;-61
2023/08/16 08:20:59;;;;;;;6.82;3.03;;;;;;;25.57;51.01;101968.53;5053780;28;20177;-61
2023/08/16 08:23:26;;;;;;;5.35;2.90;;;;;;;25.64;51.97;101974.63;5053761;28;20471;-60
2023/08/16 08:25:51;;;;;;;7.60;2.83;;;;;;;25.66;52.50;101983.59;5053651;28;20029;-60
2023/08/16 08:28:18;;;;;;;6.97;2.90;;;;;;;26.01;51.80;101981.50;5053761;28;20025;-60
2023/08/16 08:30:44;;;;;;;7.60;2.78;;;;;;;26.20;51.83;101975.34;5053517;28;20100;-59
2023/08/16 08:33:10;;;;;;;6.85;2.92;;;;;;;26.26;50.87;101981.50;5053553;28;20115;-60
2023/08/16 08:35:36;;;;;;;8.82;3.00;;;;;;;26.35;50.97;101975.75;5053795;28;20483;-60
2023/08/16 08:38:02;;;;;;;6.00;2.80;;;;;;;26.55;50.13;101984.06;5053449;28;20504;-60
2023/08/16 08:40:31;;;;;;;6.78;2.90;;;;;;;26.65;50.79;101982.75;5053451;28;20024;-60
2023/08/16 08:42:58;;;;;;;7.93;3.00;;;;;;;26.73;50.05;101974.31;5053629;28;20490;-61
2023/08/16 08:45:25;;;;;;;13.95;3.20;;;;;;;27.09;48.41;101981.94;5053186;28;20104;-61
2023/08/16 08:47:51;;;;;;;8.68;3.35;;;;;;;27.17;48.45;101979.84;5053477;28;20364;-60
2023/08/16 08:50:17;;;;;;;8.88;3.10;;;;;;;27.56;48.33;101980.00;5053155;28;20024;-59
2023/08/16 08:52:50;;;;;;;9.15;2.72;;;;;;;27.66;48.01;101980.50;5053316;28;20079;-60
2023/08/16 08:55:15;;;;;;;5.97;2.67;;;;;;;27.84;47.26;101981.59;5052060;28;20451;-59
2023/08/16 08:57:43;;;;;;;5.57;2.97;;;;;;;27.74;46.92;101988.34;5035228;28;20039;-60
2023/08/16 09:00:14;;;;;;;7.38;3.00;;;;;;;27.69;48.59;101992.09;5052771;28;20532;-61
2023/08/16 09:02:40;;;;;;;7.18;3.15;;;;;;;27.53;47.22;101993.69;5053379;28;20032;-60
2023/08/16 09:05:09;;;;;;;7.40;3.28;;;;;;;27.39;47.61;101990.69;5053041;28;20087;-60
2023/08/16 09:07:36;;;;;;;10.43;3.42;;;;;;;27.35;48.58;101995.34;5053159;28;20029;-60
2023/08/16 09:10:02;;;;;;;7.93;2.95;;;;;;;27.54;48.55;101990.06;5053210;28;20052;-60
2023/08/16 09:12:27;;;;;;;8.50;3.42;;;;;;;27.43;47.53;101985.06;5052693;28;20080;-61
2023/08/16 09:14:53;;;;;;;6.90;3.22;;;;;;;27.23;48.70;101986.84;5052991;28;20075;-59
2023/08/16 09:17:18;;;;;;;7.68;3.38;;;;;;;27.22;49.29;101983.25;5052852;28;20025;-61
2023/08/16 09:19:44;;;;;;;7.18;3.30;;;;;;;27.39;49.09;101983.44;5052882;28;20028;-60
2023/08/16 09:22:12;;;;;;;5.50;2.80;;;;;;;27.60;47.05;101981.66;5052497;28;20120;-60
2023/08/16 09:24:40;;;;;;;8.02;3.30;;;;;;;27.65;46.79;101986.88;5034658;28;20478;-60
2023/08/16 09:27:06;;;;;;;7.30;3.30;;;;;;;27.88;46.51;101999.50;5052490;28;20033;-59
2023/08/16 09:29:31;;;;;;;8.40;3.47;;;;;;;27.63;46.93;101996.94;5052340;28;20035;-60
2023/08/16 09:31:57;;;;;;;6.80;3.75;;;;;;;27.46;47.14;102003.97;5052749;28;20025;-61
2023/08/16 09:34:24;;;;;;;7.57;3.60;;;;;;;27.18;47.73;102001.47;5052578;28;20328;-61
2023/08/16 09:36:49;;;;;;;5.35;3.08;;;;;;;27.24;47.82;102004.88;5052690;28;20483;-60
2023/08/16 09:39:15;;;;;;;9.52;3.42;;;;;;;26.88;48.68;102000.81;5052443;28;20040;-60
2023/08/16 09:41:50;;;;;;;7.28;3.53;;;;;;;27.07;49.02;101990.16;5034715;28;20029;-61
2023/08/16 09:44:17;;;;;;;7.15;3.63;;;;;;;27.09;48.78;101984.66;5052587;28;20053;-60
2023/08/16 09:46:43;;;;;;;9.23;3.80;;;;;;;27.00;50.84;101985.91;5052512;28;20041;-61
2023/08/16 09:49:10;;;;;;;10.93;4.10;;;;;;;27.16;49.51;101988.94;5052318;28;20092;-61
2023/08/16 09:51:37;;;;;;;7.95;3.83;;;;;;;27.00;50.52;101979.59;5052396;28;20022;-61
2023/08/16 09:54:09;;;;;;;9.50;3.40;;;;;;;27.02;51.56;101991.25;5052178;28;20550;-61
2023/08/16 09:56:35;;;;;;;7.40;3.70;;;;;;;27.08;50.71;101993.75;5052384;28;20044;-60
2023/08/16 09:59:01;;;;;;;8.98;3.70;;;;;;;27.10;49.94;101989.16;5052407;28;20037;-60
2023/08/16 10:01:26;;;;;;;6.15;3.70;;;;;;;27.07;50.03;101981.13;5052317;28;20382;-60
2023/08/16 10:03:55;;;;;;;9.45;4.20;;;;;;;26.71;50.55;101979.78;5052620;28;20475;-60
2023/08/16 10:06:25;;;;;;;7.47;4.00;;;;;;;26.76;49.69;101982.31;5034159;28;20398;-60
2023/08/16 10:08:52;;;;;;;8.32;3.70;;;;;;;26.79;51.57;101986.75;5052270;28;20474;-59
2023/08/16 10:11:22;;;;;;;10.30;3.90;;;;;;;26.71;51.83;101985.22;5051913;28;20490;-60
2023/08/16 10:13:47;;;;;;;6.47;3.60;;;;;;;26.67;52.94;101982.69;5054113;28;20040;-60
2023/08/16 10:16:14;;;;;;;8.63;3.83;;;;;;;26.66;52.53;101978.19;5038011;28;20120;-60
2023/08/16 10:18:45;;;;;;;9.52;4.15;;;;;;;26.46;50.85;101974.41;5056130;28;20235;-61
2023/08/16 10:21:16;;;;;;;7.45;3.30;;;;;;;26.46;52.58;101969.00;5056002;28;20048;-60
2023/08/16 10:23:42;;;;;;;11.82;3.80;;;;;;;26.39;51.71;101972.84;5055855;28;20033;-60
2023/08/16 10:26:15;;;;;;;8.27;3.88;;;;;;;26.34;52.22;101971.28;5055759;28;20044;-60
2023/08/16 10:28:54;;;;;;;7.38;3.95;;;;;;;26.45;51.80;101974.47;5055865;28;20024;-61
2023/08/16 10:31:26;;;;;;;8.23;3.80;;;;;;;26.36;52.32;101975.69;5055474;28;20036;-61
2023/08/16 10:33:55;;;;;;;6.00;3.45;;;;;;;26.46;52.45;101969.00;5055714;28;20052;-60
2023/08/16 10:36:22;;;;;;;6.97;3.67;;;;;;;26.60;52.82;101973.03;5055523;28;20098;-60
2023/08/16 10:38:54;;;;;;;7.40;3.67;;;;;;;26.51;53.44;101967.94;5055781;28;20432;-59
2023/08/16 10:41:21;;;;;;;6.90;3.47;;;;;;;26.58;53.36;101978.50;5055636;28;20226;-59
2023/08/16 10:43:54;;;;;;;6.40;3.35;;;;;;;26.79;52.09;101973.19;5055620;28;20029;-59
2023/08/16 10:46:30;;;;;;;7.03;3.28;;;;;;;27.19;51.49;101977.94;5055436;28;20025;-59
2023/08/16 10:48:59;;;;;;;10.50;4.00;;;;;;;27.23;51.29;101976.84;5055289;28;20025;-60
2023/08/16 10:51:25;;;;;;;9.32;3.97;;;;;;;27.15;50.63;101976.28;5055416;28;20096;-60
2023/08/16 10:53:51;;;;;;;7.07;4.10;;;;;;;27.15;50.14;101971.78;5055122;28;20040;-59
2023/08/16 10:56:19;;;;;;;7.88;3.78;;;;;;;27.27;50.51;101972.19;5055579;28;20029;-60
2023/08/16 10:58:50;;;;;;;7.38;3.83;;;;;;;27.16;49.54;101970.81;5055044;28;20029;-59
2023/08/16 11:01:16;;;;;;;10.95;4.50;;;;;;;26.97;49.63;101954.34;5055287;28;20029;-60
2023/08/16 11:03:43;;;;;;;10.38;3.60;;;;;;;27.00;50.90;101975.06;5055188;28;20017;-60
2023/08/16 11:06:13;;;;;;;9.30;3.53;;;;;;;26.97;50.88;101969.75;5037288;28;20029;-61
2023/08/16 11:08:44;;;;;;;7.75;3.88;;;;;;;27.04;50.24;101970.41;5055158;28;20029;-61
2023/08/16 11:11:10;;;;;;;8.55;3.60;;;;;;;27.04;49.84;101973.09;5055013;28;20475;-61
2023/08/16 11:13:36;;;;;;;9.70;3.83;;;;;;;27.00;50.64;101960.59;5055000;28;20025;-60
2023/08/16 11:16:02;;;;;;;9.50;3.90;;;;;;;27.03;50.75;101965.91;5053899;28;20107;-61
2023/08/16 11:18:32;;;;;;;8.57;3.72;;;;;;;27.09;51.99;101966.56;5055251;28;20388;-60
2023/08/16 11:21:01;;;;;;;8.68;3.55;;;;;;;27.12;52.19;101966.47;5055081;28;20031;-61